createdAt,value
2023-05-09T00:00:06.557Z,16.33
2023-05-09T00:02:36.321Z,15.90
2023-05-09T00:05:05.466Z,15.90
2023-05-09T00:07:33.752Z,16.40
2023-05-09T00:10:02.270Z,18.07
2023-05-09T00:12:30.879Z,16.67
2023-05-09T00:15:00.624Z,16.53
2023-05-09T00:17:29.302Z,16.17
2023-05-09T00:19:57.764Z,16.07
2023-05-09T00:22:26.208Z,15.03
2023-05-09T00:24:55.824Z,15.30
2023-05-09T00:27:24.368Z,16.10
2023-05-09T00:29:52.708Z,16.07
2023-05-09T00:32:22.563Z,15.13
2023-05-09T00:34:52.212Z,15.63
2023-05-09T00:37:21.274Z,14.73
2023-05-09T00:39:49.789Z,13.73
2023-05-09T00:42:19.705Z,15.20
2023-05-09T00:44:48.078Z,15.57
2023-05-09T00:47:16.362Z,15.67
2023-05-09T00:49:46.101Z,15.43
2023-05-09T00:52:14.327Z,15.50
2023-05-09T00:54:42.945Z,15.97
2023-05-09T00:57:11.074Z,15.23
2023-05-09T00:59:39.873Z,14.33
2023-05-09T01:02:08.447Z,14.03
2023-05-09T01:04:36.748Z,15.40
2023-05-09T01:07:13.334Z,15.60
2023-05-09T01:09:48.896Z,15.73
2023-05-09T01:12:27.724Z,15.20
2023-05-09T01:15:02.242Z,15.33
2023-05-09T01:17:38.644Z,14.60
2023-05-09T01:20:15.912Z,15.27
2023-05-09T01:22:51.523Z,15.37
2023-05-09T01:25:39.364Z,15.60
2023-05-09T01:28:15.830Z,14.87
2023-05-09T01:30:49.275Z,16.47
2023-05-09T01:33:20.515Z,15.80
2023-05-09T01:35:53.649Z,16.00
2023-05-09T01:38:25.125Z,15.93
2023-05-09T01:40:56.363Z,15.03
2023-05-09T01:43:26.945Z,15.73
2023-05-09T01:45:57.739Z,15.67
2023-05-09T01:48:28.235Z,15.40
2023-05-09T01:50:57.439Z,15.63
2023-05-09T01:53:27.751Z,15.57
2023-05-09T01:55:58.291Z,15.37
2023-05-09T01:58:28.756Z,16.47
2023-05-09T02:00:59.215Z,15.20
2023-05-09T02:03:27.888Z,15.63
2023-05-09T02:05:58.130Z,15.30
2023-05-09T02:08:27.905Z,14.97
2023-05-09T02:10:56.849Z,15.07
2023-05-09T02:13:25.187Z,15.47
2023-05-09T02:15:56.346Z,15.90
2023-05-09T02:18:26.768Z,15.60
2023-05-09T02:20:57.022Z,14.73
2023-05-09T02:23:27.563Z,15.80
2023-05-09T02:25:56.343Z,15.47
2023-05-09T02:28:27.270Z,15.10
2023-05-09T02:30:59.984Z,15.13
2023-05-09T02:33:30.990Z,14.10
2023-05-09T02:35:59.582Z,14.40
2023-05-09T02:38:28.668Z,14.37
2023-05-09T02:40:57.652Z,14.67
2023-05-09T02:43:26.400Z,15.10
2023-05-09T02:45:54.739Z,15.43
2023-05-09T02:48:23.195Z,15.40
2023-05-09T02:50:53.027Z,15.30
2023-05-09T02:53:24.149Z,14.87
2023-05-09T02:55:54.114Z,15.43
2023-05-09T02:58:22.643Z,15.53
2023-05-09T03:00:51.116Z,15.33
2023-05-09T03:03:19.385Z,15.03
2023-05-09T03:05:49.042Z,15.30
2023-05-09T03:08:21.024Z,15.80
2023-05-09T03:10:49.550Z,16.37
2023-05-09T03:13:17.940Z,15.00
2023-05-09T03:15:46.468Z,15.77
2023-05-09T03:18:14.660Z,15.17
2023-05-09T03:20:43.033Z,14.70
2023-05-09T03:23:14.963Z,15.20
2023-05-09T03:25:45.003Z,14.77
2023-05-09T03:28:16.227Z,15.70
2023-05-09T03:30:45.671Z,15.33
2023-05-09T03:33:13.804Z,15.17
2023-05-09T03:35:42.387Z,14.70
2023-05-09T03:38:10.789Z,15.23
2023-05-09T03:40:39.226Z,13.77
2023-05-09T03:43:08.840Z,15.17
2023-05-09T03:45:38.503Z,15.33
2023-05-09T03:48:09.871Z,14.87
2023-05-09T03:50:38.296Z,15.07
2023-05-09T03:53:08.908Z,15.10
2023-05-09T03:55:37.436Z,14.77
2023-05-09T03:58:06.882Z,15.17
2023-05-09T04:00:36.959Z,15.07
2023-05-09T04:03:05.698Z,14.53
2023-05-09T04:05:35.614Z,16.10
2023-05-09T04:08:04.242Z,16.17
2023-05-09T04:10:33.154Z,14.77
2023-05-09T04:13:01.508Z,15.53
2023-05-09T04:15:29.688Z,15.20
2023-05-09T04:18:02.084Z,15.27
2023-05-09T04:20:31.484Z,15.20
2023-05-09T04:22:59.570Z,14.60
2023-05-09T04:25:29.637Z,16.20
2023-05-09T04:28:00.159Z,16.17
2023-05-09T04:30:30.904Z,16.27
2023-05-09T04:33:00.402Z,17.20
2023-05-09T04:35:28.629Z,16.07
2023-05-09T04:37:56.913Z,17.03
2023-05-09T04:40:26.852Z,15.80
2023-05-09T04:42:57.413Z,16.50
2023-05-09T04:45:26.346Z,16.87
2023-05-09T04:47:54.605Z,16.83
2023-05-09T04:50:25.678Z,16.03
2023-05-09T04:52:53.868Z,16.70
2023-05-09T04:55:22.330Z,17.07
2023-05-09T04:57:50.890Z,18.07
2023-05-09T05:00:19.572Z,17.83
2023-05-09T05:02:48.292Z,18.03
2023-05-09T05:05:17.793Z,17.13
2023-05-09T05:07:47.461Z,17.90
2023-05-09T05:10:15.975Z,17.60
2023-05-09T05:12:44.245Z,17.67
2023-05-09T05:15:14.015Z,17.50
2023-05-09T05:17:43.671Z,16.47
2023-05-09T05:20:12.572Z,16.83
2023-05-09T05:22:40.701Z,16.80
2023-05-09T05:25:11.832Z,17.63
2023-05-09T05:27:40.341Z,17.90
2023-05-09T05:30:09.756Z,17.87
2023-05-09T05:32:38.236Z,17.90
2023-05-09T05:35:07.099Z,18.70
2023-05-09T05:37:35.222Z,16.73
2023-05-09T05:40:03.855Z,16.23
2023-05-09T05:42:34.156Z,14.10
2023-05-09T05:45:04.703Z,14.07
2023-05-09T05:47:33.544Z,13.13
2023-05-09T05:50:07.067Z,12.57
2023-05-09T05:52:35.417Z,12.73
2023-05-09T05:55:04.035Z,11.10
2023-05-09T05:57:34.738Z,11.37
2023-05-09T06:00:06.158Z,11.13
2023-05-09T06:02:34.666Z,10.93
2023-05-09T06:05:04.056Z,11.27
2023-05-09T06:07:32.407Z,10.93
2023-05-09T06:10:00.542Z,10.23
2023-05-09T06:12:28.658Z,10.40
2023-05-09T06:14:58.287Z,10.40
2023-05-09T06:17:27.286Z,10.70
2023-05-09T06:19:56.727Z,10.53
2023-05-09T06:22:25.110Z,9.57
2023-05-09T06:24:54.452Z,10.37
2023-05-09T06:27:24.054Z,10.00
2023-05-09T06:29:52.973Z,9.73
2023-05-09T06:32:22.726Z,9.90
2023-05-09T06:34:50.960Z,9.47
2023-05-09T06:37:19.372Z,9.53
2023-05-09T06:39:48.266Z,10.17
2023-05-09T06:42:16.852Z,10.03
2023-05-09T06:44:45.353Z,9.63
2023-05-09T06:47:13.705Z,10.00
2023-05-09T06:49:43.498Z,9.83
2023-05-09T06:52:13.165Z,10.33
2023-05-09T06:54:41.300Z,10.03
2023-05-09T06:57:09.756Z,11.23
2023-05-09T06:59:38.012Z,10.33
2023-05-09T07:02:06.225Z,11.13
2023-05-09T07:04:34.474Z,11.53
2023-05-09T07:07:04.194Z,11.23
2023-05-09T07:09:32.674Z,12.00
2023-05-09T07:12:01.716Z,11.30
2023-05-09T07:14:29.876Z,11.03
2023-05-09T07:17:09.974Z,12.20
2023-05-09T07:19:46.535Z,12.33
2023-05-09T07:22:16.237Z,12.00
2023-05-09T07:24:46.675Z,12.43
2023-05-09T07:27:14.924Z,12.87
2023-05-09T07:29:43.011Z,12.00
2023-05-09T07:32:11.570Z,13.23
2023-05-09T07:34:40.475Z,12.57
2023-05-09T07:37:08.851Z,12.50
2023-05-09T07:39:38.560Z,12.87
2023-05-09T07:42:06.620Z,13.10
2023-05-09T07:44:34.671Z,13.67
2023-05-09T07:47:02.871Z,13.37
2023-05-09T07:49:30.890Z,13.30
2023-05-09T07:51:59.042Z,13.93
2023-05-09T07:54:27.571Z,12.87
2023-05-09T07:56:57.213Z,13.67
2023-05-09T07:59:25.228Z,13.03
2023-05-09T08:01:53.773Z,13.80
2023-05-09T08:04:22.158Z,13.90
2023-05-09T08:06:50.523Z,13.87
2023-05-09T08:09:19.621Z,13.20
2023-05-09T08:11:47.833Z,12.70
2023-05-09T08:14:18.518Z,13.17
2023-05-09T08:16:46.994Z,12.60
2023-05-09T08:19:15.565Z,11.87
2023-05-09T08:21:43.702Z,13.10
2023-05-09T08:24:12.000Z,13.80
2023-05-09T08:26:40.102Z,13.50
2023-05-09T08:29:08.562Z,13.20
2023-05-09T08:31:38.325Z,13.77
2023-05-09T08:34:06.737Z,13.07
2023-05-09T08:36:35.115Z,12.87
2023-05-09T08:39:03.627Z,12.53
2023-05-09T08:41:36.302Z,12.90
2023-05-09T08:44:04.760Z,12.13
2023-05-09T08:46:37.412Z,11.80
2023-05-09T08:49:08.713Z,12.30
2023-05-09T08:51:37.317Z,13.50
2023-05-09T08:54:06.707Z,13.17
2023-05-09T08:56:36.795Z,11.77
2023-05-09T08:59:07.281Z,14.13
2023-05-09T09:01:36.736Z,13.33
2023-05-09T09:04:11.825Z,13.10
2023-05-09T09:06:41.753Z,13.67
2023-05-09T09:09:10.819Z,14.23
2023-05-09T09:11:39.722Z,13.27
2023-05-09T09:14:13.450Z,14.17
2023-05-09T09:16:44.975Z,14.60
2023-05-09T09:19:18.829Z,14.33
2023-05-09T09:21:48.393Z,14.30
2023-05-09T09:24:22.796Z,14.60
2023-05-09T09:26:53.465Z,14.03
2023-05-09T09:29:22.988Z,14.30
2023-05-09T09:31:55.657Z,14.30
2023-05-09T09:34:26.948Z,14.03
2023-05-09T09:36:55.325Z,14.80
2023-05-09T09:39:23.648Z,13.80
2023-05-09T09:41:52.119Z,13.57
2023-05-09T09:44:24.447Z,13.03
2023-05-09T09:46:53.991Z,14.00
2023-05-09T09:49:23.888Z,13.47
2023-05-09T09:51:54.300Z,12.87
2023-05-09T09:54:23.621Z,14.27
2023-05-09T09:56:55.404Z,14.17
2023-05-09T09:59:25.963Z,13.37
2023-05-09T10:01:59.263Z,14.03
2023-05-09T10:04:30.211Z,14.10
2023-05-09T10:07:01.289Z,13.43
2023-05-09T10:09:31.595Z,13.17
2023-05-09T10:12:04.265Z,14.80
2023-05-09T10:14:35.526Z,14.20
2023-05-09T10:17:05.446Z,13.90
2023-05-09T10:19:34.462Z,12.90
2023-05-09T10:22:07.818Z,13.77
2023-05-09T10:24:37.009Z,14.03
2023-05-09T10:27:08.160Z,12.80
2023-05-09T10:29:42.446Z,12.53
2023-05-09T10:32:17.833Z,12.60
2023-05-09T10:34:49.504Z,13.03
2023-05-09T10:37:20.115Z,12.97
2023-05-09T10:39:53.353Z,12.53
2023-05-09T10:42:23.090Z,12.80
2023-05-09T10:44:51.551Z,12.77
2023-05-09T10:47:20.660Z,12.10
2023-05-09T10:49:50.448Z,12.00
2023-05-09T10:52:22.581Z,12.17
2023-05-09T10:55:01.321Z,12.43
2023-05-09T10:57:31.328Z,12.63
2023-05-09T11:00:00.884Z,10.97
2023-05-09T11:02:32.701Z,12.60
2023-05-09T11:05:17.772Z,12.03
2023-05-09T11:07:47.646Z,13.00
2023-05-09T11:10:19.049Z,12.73
2023-05-09T11:12:59.530Z,12.77
2023-05-09T11:15:28.727Z,13.53
2023-05-09T11:18:08.402Z,13.57
2023-05-09T11:20:37.478Z,13.60
2023-05-09T11:23:08.082Z,15.07
2023-05-09T11:25:36.318Z,15.37
2023-05-09T11:28:04.514Z,14.07
2023-05-09T11:30:41.884Z,15.10
2023-05-09T11:33:24.609Z,13.73
2023-05-09T11:36:17.504Z,14.15
2023-05-09T11:38:47.943Z,13.43
2023-05-09T11:41:16.996Z,13.10
2023-05-09T11:43:46.071Z,13.13
2023-05-09T11:46:14.147Z,12.20
2023-05-09T11:48:43.307Z,12.30
2023-05-09T11:51:18.472Z,12.47
2023-05-09T11:53:51.571Z,11.40
2023-05-09T11:56:19.994Z,12.20
2023-05-09T11:58:48.256Z,11.20
2023-05-09T12:01:16.303Z,12.17
2023-05-09T12:03:46.682Z,11.13
2023-05-09T12:06:19.079Z,11.53
2023-05-09T12:08:49.570Z,12.23
2023-05-09T12:11:17.732Z,12.33
2023-05-09T12:13:48.059Z,10.43
2023-05-09T12:16:17.372Z,10.90
2023-05-09T12:18:49.640Z,10.97
2023-05-09T12:21:18.329Z,11.30
2023-05-09T12:23:49.849Z,11.53
2023-05-09T12:26:21.075Z,12.37
2023-05-09T12:28:50.738Z,13.07
2023-05-09T12:31:19.274Z,12.40
2023-05-09T12:33:47.785Z,12.50
2023-05-09T12:36:16.183Z,12.27
2023-05-09T12:38:55.668Z,12.23
2023-05-09T12:43:57.391Z,12.57
2023-05-09T12:46:26.011Z,13.17
2023-05-09T12:48:54.501Z,12.67
2023-05-09T12:51:23.966Z,12.50
2023-05-09T12:53:52.606Z,13.90
2023-05-09T12:56:23.747Z,13.00
2023-05-09T12:58:55.161Z,12.53
2023-05-09T13:01:28.991Z,13.50
2023-05-09T13:04:04.154Z,13.03
2023-05-09T13:06:32.703Z,12.47
2023-05-09T13:09:02.509Z,12.57
2023-05-09T13:11:31.796Z,12.47
2023-05-09T13:14:03.394Z,12.00
2023-05-09T13:16:31.957Z,11.80
2023-05-09T13:19:01.757Z,11.68
2023-05-09T13:21:30.008Z,11.23
2023-05-09T13:23:58.573Z,10.73
2023-05-09T13:26:27.489Z,10.65
2023-05-09T13:28:56.065Z,10.68
2023-05-09T13:31:25.911Z,10.97
2023-05-09T13:33:54.357Z,10.53
2023-05-09T13:36:22.767Z,10.93
2023-05-09T13:38:51.238Z,10.10
2023-05-09T13:41:23.300Z,9.33
2023-05-09T13:43:51.739Z,9.73
2023-05-09T13:46:20.153Z,10.00
2023-05-09T13:48:49.914Z,9.88
2023-05-09T13:51:19.544Z,9.45
2023-05-09T13:53:48.286Z,9.38
2023-05-09T13:56:16.615Z,8.93
2023-05-09T13:58:44.787Z,9.10
2023-05-09T14:01:12.922Z,9.00
2023-05-09T14:03:41.841Z,8.48
2023-05-09T14:06:15.359Z,8.63
2023-05-09T14:08:43.637Z,8.70
2023-05-09T14:11:16.663Z,8.07
2023-05-09T14:13:46.995Z,8.38
2023-05-09T14:16:15.298Z,9.13
2023-05-09T14:18:43.768Z,8.85
2023-05-09T14:21:13.509Z,7.60
2023-05-09T14:23:41.985Z,7.68
2023-05-09T14:26:10.184Z,6.90
2023-05-09T14:28:38.431Z,6.88
2023-05-09T14:31:07.046Z,5.30
2023-05-09T14:33:36.181Z,5.57
2023-05-09T14:36:04.826Z,5.75
2023-05-09T14:38:34.627Z,5.32
2023-05-09T14:41:03.130Z,5.13
2023-05-09T14:43:31.340Z,6.13
2023-05-09T14:46:00.808Z,5.82
2023-05-09T14:48:29.080Z,5.88
2023-05-09T14:50:57.429Z,5.38
2023-05-09T14:53:27.411Z,5.60
2023-05-09T14:55:57.321Z,5.72
2023-05-09T14:58:25.465Z,6.22
2023-05-09T15:00:53.915Z,6.20
2023-05-09T15:03:22.104Z,5.93
2023-05-09T15:05:50.592Z,7.75
2023-05-09T15:08:19.228Z,8.30
2023-05-09T15:10:50.926Z,8.93
2023-05-09T15:13:21.057Z,9.30
2023-05-09T15:15:51.749Z,8.85
2023-05-09T15:18:21.857Z,8.63
2023-05-09T15:20:52.271Z,9.07
2023-05-09T15:23:20.873Z,9.48
2023-05-09T15:25:49.304Z,9.83
2023-05-09T15:28:20.946Z,8.87
2023-05-09T15:30:49.299Z,8.50
2023-05-09T15:33:17.775Z,8.82
2023-05-09T15:35:47.268Z,8.13
2023-05-09T15:38:15.671Z,7.65
2023-05-09T15:40:45.079Z,8.13
2023-05-09T15:43:13.308Z,8.55
2023-05-09T15:45:45.827Z,9.53
2023-05-09T15:48:14.182Z,8.70
2023-05-09T15:50:43.479Z,9.20
2023-05-09T15:53:11.914Z,8.60
2023-05-09T15:55:40.045Z,9.20
2023-05-09T15:58:11.169Z,8.33
2023-05-09T16:00:39.957Z,9.20
2023-05-09T16:03:09.836Z,8.55
2023-05-09T16:05:41.016Z,8.52
2023-05-09T16:08:09.412Z,8.77
2023-05-09T16:10:37.721Z,8.40
2023-05-09T16:13:06.125Z,9.55
2023-05-09T16:15:34.849Z,8.97
2023-05-09T16:18:03.063Z,8.75
2023-05-09T16:20:32.665Z,9.13
2023-05-09T16:23:07.195Z,9.47
2023-05-09T16:25:36.889Z,9.80
2023-05-09T16:28:10.215Z,9.40
2023-05-09T16:30:38.886Z,8.83
2023-05-09T16:33:09.843Z,9.40
2023-05-09T16:35:40.266Z,9.50
2023-05-09T16:38:11.152Z,9.20
2023-05-09T16:40:39.719Z,8.50
2023-05-09T16:43:08.500Z,9.10
2023-05-09T16:45:36.835Z,9.00
2023-05-09T16:48:05.560Z,9.57
2023-05-09T16:50:33.920Z,9.77
2023-05-09T16:53:04.837Z,9.70
2023-05-09T16:55:33.328Z,10.03
2023-05-09T16:58:01.729Z,10.73
2023-05-09T17:00:30.287Z,10.57
2023-05-09T17:02:58.389Z,10.23
2023-05-09T17:05:26.848Z,10.17
2023-05-09T17:07:55.294Z,9.87
2023-05-09T17:10:25.334Z,9.53
2023-05-09T17:12:53.607Z,10.00
2023-05-09T17:15:22.046Z,9.50
2023-05-09T17:17:51.429Z,9.13
2023-05-09T17:20:20.016Z,9.13
2023-05-09T17:22:48.243Z,9.40
2023-05-09T17:25:17.245Z,9.33
2023-05-09T17:27:49.971Z,8.83
2023-05-09T17:30:22.794Z,8.93
2023-05-09T17:32:51.509Z,9.67
2023-05-09T17:35:22.909Z,8.90
2023-05-09T17:37:51.351Z,8.93
2023-05-09T17:40:19.668Z,9.13
2023-05-09T17:42:49.977Z,8.17
2023-05-09T17:45:18.424Z,8.93
2023-05-09T17:47:47.113Z,8.60
2023-05-09T17:50:19.176Z,9.23
2023-05-09T17:52:49.923Z,9.03
2023-05-09T17:55:20.100Z,8.77
2023-05-09T17:57:49.765Z,9.00
2023-05-09T18:00:19.662Z,9.70
2023-05-09T18:02:48.315Z,9.63
2023-05-09T18:05:16.900Z,10.03
2023-05-09T18:07:45.417Z,9.43
2023-05-09T18:10:15.460Z,10.00
2023-05-09T18:12:45.343Z,10.23
2023-05-09T18:15:15.158Z,10.17
2023-05-09T18:17:46.305Z,9.97
2023-05-09T18:20:14.937Z,9.87
2023-05-09T18:22:43.539Z,10.07
2023-05-09T18:25:12.074Z,10.83
2023-05-09T18:27:40.725Z,9.77
2023-05-09T18:30:10.427Z,10.13
2023-05-09T18:32:40.160Z,10.43
2023-05-09T18:35:13.426Z,10.20
2023-05-09T18:37:45.552Z,9.87
2023-05-09T18:40:15.972Z,9.07
2023-05-09T18:42:44.921Z,8.53
2023-05-09T18:45:14.361Z,8.53
2023-05-09T18:47:44.287Z,8.93
2023-05-09T18:50:13.820Z,8.97
2023-05-09T18:52:44.423Z,8.03
2023-05-09T18:55:13.385Z,8.60
2023-05-09T18:57:41.733Z,7.83
2023-05-09T19:00:11.765Z,8.30
2023-05-09T19:02:42.355Z,8.23
2023-05-09T19:05:13.512Z,8.17
2023-05-09T19:07:42.086Z,8.77
2023-05-09T19:10:11.788Z,8.50
2023-05-09T19:12:39.959Z,8.13
2023-05-09T19:15:09.156Z,8.80
2023-05-09T19:17:38.415Z,8.63
2023-05-09T19:20:08.542Z,8.77
2023-05-09T19:22:41.353Z,8.83
2023-05-09T19:25:10.543Z,7.90
2023-05-09T19:27:38.740Z,8.23
2023-05-09T19:30:08.387Z,8.30
2023-05-09T19:32:36.577Z,8.60
2023-05-09T19:35:06.632Z,8.77
2023-05-09T19:37:35.142Z,8.10
2023-05-09T19:40:06.401Z,9.50
2023-05-09T19:42:35.396Z,8.27
2023-05-09T19:45:04.636Z,8.43
2023-05-09T19:47:33.647Z,8.43
2023-05-09T19:50:02.281Z,9.43
2023-05-09T19:52:32.036Z,9.47
2023-05-09T19:55:00.514Z,9.47
2023-05-09T19:57:30.836Z,11.03
2023-05-09T19:59:59.969Z,10.03
2023-05-09T20:02:29.536Z,10.17
2023-05-09T20:04:58.823Z,10.43
2023-05-09T20:07:27.355Z,10.77
2023-05-09T20:10:04.820Z,10.47
2023-05-09T20:12:35.153Z,10.90
2023-05-09T20:15:03.594Z,10.23
2023-05-09T20:17:32.227Z,10.53
2023-05-09T20:20:01.084Z,11.20
2023-05-09T20:22:29.491Z,10.43
2023-05-09T20:24:57.792Z,11.20
2023-05-09T20:27:26.622Z,10.67
2023-05-09T20:29:56.819Z,10.27
2023-05-09T20:32:25.818Z,9.20
2023-05-09T20:34:59.986Z,9.17
2023-05-09T20:37:28.546Z,9.40
2023-05-09T20:39:58.914Z,8.57
2023-05-09T20:42:27.843Z,9.30
2023-05-09T20:44:58.096Z,9.83
2023-05-09T20:47:29.388Z,9.70
2023-05-09T20:49:58.469Z,9.90
2023-05-09T20:52:29.074Z,9.30
2023-05-09T20:54:58.147Z,9.73
2023-05-09T20:57:29.980Z,10.30
2023-05-09T21:00:04.265Z,9.50
2023-05-09T21:02:36.501Z,10.40
2023-05-09T21:05:07.266Z,10.00
2023-05-09T21:07:37.572Z,11.70
2023-05-09T21:10:07.324Z,11.40
2023-05-09T21:12:35.564Z,10.23
2023-05-09T21:15:09.295Z,9.47
2023-05-09T21:17:37.567Z,9.57
2023-05-09T21:20:06.640Z,9.53
2023-05-09T21:22:36.792Z,9.47
2023-05-09T21:25:08.519Z,8.30
2023-05-09T21:27:38.129Z,9.77
2023-05-09T21:30:11.881Z,9.60
2023-05-09T21:32:41.248Z,9.33
2023-05-09T21:35:13.315Z,9.33
2023-05-09T21:37:51.906Z,8.93
2023-05-09T21:40:21.189Z,8.97
2023-05-09T21:42:50.369Z,9.00
2023-05-09T21:45:24.842Z,9.37
2023-05-09T21:47:54.159Z,9.90
2023-05-09T21:50:25.790Z,9.23
2023-05-09T21:52:56.417Z,9.67
2023-05-09T21:55:25.487Z,10.73
2023-05-09T21:57:59.253Z,10.17
2023-05-09T22:00:30.173Z,10.07
2023-05-09T22:03:07.676Z,10.37
2023-05-09T22:05:38.043Z,9.80
2023-05-09T22:08:15.667Z,9.27
2023-05-09T22:10:44.816Z,9.87
2023-05-09T22:13:20.551Z,9.23
2023-05-09T22:16:05.517Z,8.87
2023-05-09T22:18:34.303Z,9.10
2023-05-09T22:21:05.110Z,8.43
2023-05-09T22:23:36.867Z,9.00
2023-05-09T22:26:08.613Z,7.20
2023-05-09T22:28:39.014Z,7.10
2023-05-09T22:31:12.962Z,8.40
2023-05-09T22:33:42.057Z,8.43
2023-05-09T22:36:12.298Z,9.03
2023-05-09T22:38:42.830Z,8.00
2023-05-09T22:41:13.317Z,8.37
2023-05-09T22:43:43.160Z,8.47
2023-05-09T22:46:14.873Z,8.57
2023-05-09T22:48:43.347Z,7.70
2023-05-09T22:51:11.614Z,7.90
2023-05-09T22:53:46.202Z,7.43
2023-05-09T22:56:14.512Z,7.53
2023-05-09T22:58:43.817Z,7.80
2023-05-09T23:01:16.450Z,7.77
2023-05-09T23:03:47.490Z,8.30
2023-05-09T23:06:21.327Z,9.00
2023-05-09T23:08:52.534Z,7.30
2023-05-09T23:11:24.861Z,8.53
2023-05-09T23:13:54.034Z,8.63
2023-05-09T23:16:27.604Z,8.50
2023-05-09T23:18:56.175Z,8.73
2023-05-09T23:21:27.055Z,9.80
2023-05-09T23:23:56.144Z,11.07
2023-05-09T23:26:25.988Z,10.50
2023-05-09T23:28:55.934Z,10.70
2023-05-09T23:31:39.385Z,10.10
2023-05-09T23:34:08.589Z,9.90
2023-05-09T23:36:37.135Z,10.13
2023-05-09T23:39:08.024Z,10.07
2023-05-09T23:41:41.971Z,10.57
2023-05-09T23:44:15.073Z,10.47
2023-05-09T23:46:47.228Z,10.87
2023-05-09T23:49:19.848Z,9.33
2023-05-09T23:51:51.286Z,9.90
2023-05-09T23:54:22.591Z,9.93
2023-05-09T23:56:58.835Z,9.73
2023-05-09T23:59:31.169Z,10.07
